Hlavní strana
METAR-TAF:

METAR-TAF

Letiště :

Kramfors, Švédsko

zeměpisná šířka: 63-03N, zeměpisná délka: 017-46E, výška: 10 m

Aktuální stav počasí

Zpráva byla vytvořena před 26 minutami, v 13:50 UTC
Severozápadní vítr 10 kt
Teplota 0°C
Vlhkost vzduchu 86%
Tlak 997 hPa
Viditelnost 10 km a více
slabý déšť

METAR: ESNK 181350Z AUTO 32010KT 9999 -RA OVC019/// 00/M02 Q0997 REUP

Čas: 15:16 (14:16 UTC)

Předpověď počasí

Zpráva byla vytvořena před 8 hodinami a 46 minutami, v 05:30 UTC
Předpověď platná od 18 v 06 UTC do 18 v 10 UTC
Severoseverozápadní vítr 5 kt
Viditelnost: 5000 m
Zataženo ve výšce 1500 ft
slabé sněžení
Dočasný
od 18 v 06 UTC do 18 v 10 UTC
Viditelnost: 2500 m
ve výšce 1000 ft
slabé sněžení

TAF: ESNK 180530Z 1806/1810 34005KT 5000 -SN OVC015 TEMPO 1806/1810 2500 -SN VV010

Stav a předpovědi počasí z více než 4 000 letišť (zprávy METAR a TAF).

Červené a žluté tečky na mapě představují dostupné meteorologické stanice.

Když kurzor umístíte na tečku, zobrazí se název stanice.

Pak kliknutím zobrazíte stav a předpověď počasí.

Chcete-li změnit mapu, kliknutím na zelené tlačítko se znaménkem +mapu přiblížíte, kliknutím na zelené tlačítko se znaménkem – mapu oddálíte a kliknutím na zelené šipky přejdete na sousední mapy.


METAR-TAF: